Aeroporto :
LOGIN :

Iscrizione | Disclaimer

   EN    FR    IT 

 










Sommario :    VFR   VFR Marginale   IFR   IFR Intensivo   IFR Molto Intensivo
Visibilità : 
Base nubi : 
>= 8 km
>= 3000ft
5 / 8 km
1000 / 3000 ft
1500m / 5 km
500 / 1000 ft
800 / 1500m
200 / 500 ft
< 800m
< 200 ft
Simboli :   Temporali  Nebbia  Neve Forte  Precipitazioni Forti  Vento > 20 kt
SIGMETs :   Varie  Temporali  Ghiacco  Turbolenza  Onda orograficha  Ceneri Vulcaniche






- Altitudine del aeroporto : 1161 ft
- Codice IATA : RJL


LELO - Logroño-Agoncillo

ULTIMO METAR :
  • 201500Z 07004KT 030V130 9999 SCT020 08/04 Q1007

METARs OBSOLETI :
  • 201430Z 10007KT 070V130 9999 SCT020 08/04 Q1007
  • 201400Z 11006KT 050V140 9999 SCT019 08/04 Q1008
  • 201330Z 10008KT 060V130 9999 SCT017 07/04 Q1008
  • 201300Z 10008KT 070V140 9999 SCT015 SCT060 07/03 Q1009
  • 201230Z 10008KT 070V140 9999 BKN013 06/03 Q1009

TAF TAF LELO
Valido dal 20 a 15 ore il 21 a 00 ore UTC


201400Z 2015/2024 10007KT 9999 SCT025
PROB30
TEMPO 2016/2021 RA



MetMap, La meteo Aeronautica in un colpo d'occhio ! - Copyright ORBIFLY Dicembre 2007 - Disclaimer

ORBIFLY MET'MAP TEAM :

Programmazione e sviluppo : Alexandra Zaïnal
Concezione e sviluppo : Baudouin d'Aumeries
Co-Programmazione e sviluppo : Marc-Olivier Méhu
Supporto tecnico e logistico : Manuel Goepfert
Aiuto per la traduzione : Arnaldo La Scala

Contatto : metmap@orbifly.com




FONTI E CREDITI :

   NOAA